createdAt,value
2023-03-31T00:00:51.533Z,85.50
2023-03-31T00:03:22.025Z,85.49
2023-03-31T00:05:49.193Z,85.65
2023-03-31T00:08:15.877Z,85.71
2023-03-31T00:10:46.713Z,85.62
2023-03-31T00:13:13.540Z,85.46
2023-03-31T00:15:40.428Z,86.09
2023-03-31T00:18:07.316Z,86.07
2023-03-31T00:20:38.138Z,85.61
2023-03-31T00:23:11.119Z,85.69
2023-03-31T00:25:44.649Z,85.36
2023-03-31T00:28:11.300Z,85.56
2023-03-31T00:30:37.884Z,85.35
2023-03-31T00:33:04.800Z,85.89
2023-03-31T00:35:32.356Z,86.04
2023-03-31T00:37:59.861Z,86.25
2023-03-31T00:40:26.468Z,86.54
2023-03-31T00:42:54.190Z,86.45
2023-03-31T00:45:27.761Z,86.49
2023-03-31T00:48:04.374Z,86.50
2023-03-31T00:50:36.150Z,86.17
2023-03-31T00:53:12.929Z,86.07
2023-03-31T00:55:53.145Z,86.65
2023-03-31T00:58:21.950Z,86.46
2023-03-31T01:00:53.048Z,86.79
2023-03-31T01:03:22.793Z,87.31
2023-03-31T01:05:56.701Z,87.17
2023-03-31T01:08:26.349Z,87.02
2023-03-31T01:11:03.452Z,87.46
2023-03-31T01:13:32.087Z,87.62
2023-03-31T01:15:58.759Z,86.73
2023-03-31T01:18:25.926Z,86.76
2023-03-31T01:21:03.766Z,86.75
2023-03-31T01:23:42.218Z,87.33
2023-03-31T01:26:42.141Z,87.06
2023-03-31T01:29:16.242Z,86.84
2023-03-31T01:32:22.067Z,87.46
2023-03-31T01:35:22.361Z,87.49
2023-03-31T01:38:10.861Z,87.43
2023-03-31T01:40:43.498Z,87.09
2023-03-31T01:43:22.795Z,87.75
2023-03-31T01:45:52.220Z,87.60
2023-03-31T01:48:34.175Z,88.04
2023-03-31T01:51:07.538Z,87.57
2023-03-31T01:53:51.821Z,87.87
2023-03-31T01:56:28.023Z,87.88
2023-03-31T01:59:01.896Z,88.53
2023-03-31T02:01:34.443Z,88.92
2023-03-31T02:04:22.655Z,88.76
2023-03-31T02:06:58.144Z,88.67
2023-03-31T02:09:30.086Z,89.24
2023-03-31T02:11:58.363Z,88.64
2023-03-31T02:14:29.670Z,88.56
2023-03-31T02:16:59.095Z,88.32
2023-03-31T02:19:31.807Z,89.10
2023-03-31T02:21:59.822Z,89.02
2023-03-31T02:24:30.127Z,89.28
2023-03-31T02:27:28.556Z,88.89
2023-03-31T02:29:56.301Z,89.32
2023-03-31T02:32:30.019Z,89.61
2023-03-31T02:34:56.679Z,89.04
2023-03-31T02:37:24.165Z,88.82
2023-03-31T02:39:54.763Z,89.36
2023-03-31T02:42:22.194Z,89.98
2023-03-31T02:44:49.648Z,90.04
2023-03-31T02:47:18.976Z,90.95
2023-03-31T02:49:51.596Z,90.72
2023-03-31T02:52:59.290Z,90.81
2023-03-31T02:56:12.716Z,91.10
2023-03-31T02:59:03.300Z,91.54
2023-03-31T03:01:42.009Z,91.66
2023-03-31T03:04:28.389Z,91.80
2023-03-31T03:07:01.073Z,92.57
2023-03-31T03:09:52.663Z,92.80
2023-03-31T03:12:40.442Z,92.61
2023-03-31T03:15:27.381Z,92.93
2023-03-31T03:17:56.482Z,93.25
2023-03-31T03:20:23.445Z,93.27
2023-03-31T03:22:52.320Z,93.41
2023-03-31T03:25:20.564Z,93.42
2023-03-31T03:27:47.228Z,93.96
2023-03-31T03:30:14.588Z,94.10
2023-03-31T03:32:44.141Z,93.94
2023-03-31T03:35:11.710Z,94.23
2023-03-31T03:37:41.890Z,94.23
2023-03-31T03:40:09.383Z,93.80
2023-03-31T03:42:36.698Z,92.97
2023-03-31T03:45:03.647Z,92.84
2023-03-31T03:47:33.135Z,93.21
2023-03-31T03:49:59.769Z,93.65
2023-03-31T03:52:26.515Z,93.82
2023-03-31T03:54:53.155Z,93.49
2023-03-31T03:57:19.839Z,93.70
2023-03-31T03:59:49.037Z,92.69
2023-03-31T04:02:18.661Z,93.20
2023-03-31T04:04:47.909Z,92.88
2023-03-31T04:07:15.634Z,92.37
2023-03-31T04:09:42.194Z,92.73
2023-03-31T04:12:08.825Z,92.69
2023-03-31T04:14:39.085Z,92.45
2023-03-31T04:17:05.747Z,92.15
2023-03-31T04:19:32.397Z,91.63
2023-03-31T04:22:02.901Z,91.91
2023-03-31T04:24:33.434Z,91.49
2023-03-31T04:27:03.650Z,91.42
2023-03-31T04:29:33.933Z,91.21
2023-03-31T04:32:01.279Z,91.03
2023-03-31T04:34:35.195Z,92.19
2023-03-31T04:37:04.057Z,91.39
2023-03-31T04:39:31.444Z,91.83
2023-03-31T04:41:59.561Z,92.14
2023-03-31T04:44:27.325Z,92.11
2023-03-31T04:46:54.618Z,91.79
2023-03-31T04:49:21.479Z,91.96
2023-03-31T04:51:48.193Z,91.53
2023-03-31T04:54:14.886Z,90.87
2023-03-31T04:56:41.599Z,91.19
2023-03-31T04:59:08.704Z,91.02
2023-03-31T05:01:36.548Z,91.30
2023-03-31T05:04:05.229Z,91.73
2023-03-31T05:06:32.259Z,91.63
2023-03-31T05:09:00.978Z,91.54
2023-03-31T05:11:29.147Z,91.76
2023-03-31T05:13:55.791Z,91.67
2023-03-31T05:16:22.556Z,91.99
2023-03-31T05:18:49.285Z,93.37
2023-03-31T05:21:19.537Z,92.45
2023-03-31T05:23:46.642Z,92.65
2023-03-31T05:26:13.947Z,92.66
2023-03-31T05:28:41.564Z,92.84
2023-03-31T05:31:09.369Z,92.76
2023-03-31T05:33:40.475Z,92.30
2023-03-31T05:36:10.065Z,93.65
2023-03-31T05:38:39.754Z,93.89
2023-03-31T05:41:08.471Z,93.19
2023-03-31T05:43:39.488Z,93.10
2023-03-31T05:46:09.810Z,93.06
2023-03-31T05:48:38.113Z,93.71
2023-03-31T05:51:04.927Z,93.35
2023-03-31T05:53:31.725Z,93.23
2023-03-31T05:55:59.933Z,93.64
2023-03-31T05:58:26.998Z,92.90
2023-03-31T06:01:09.515Z,92.82
2023-03-31T06:03:38.714Z,91.81
2023-03-31T06:06:06.359Z,91.99
2023-03-31T06:08:33.068Z,91.91
2023-03-31T06:10:59.715Z,92.63
2023-03-31T06:13:26.379Z,92.40
2023-03-31T06:15:57.362Z,91.98
2023-03-31T06:18:24.553Z,92.55
2023-03-31T06:20:52.271Z,93.16
2023-03-31T06:23:18.935Z,93.56
2023-03-31T06:25:51.335Z,93.05
2023-03-31T06:28:20.054Z,92.18
2023-03-31T06:30:46.793Z,91.85
2023-03-31T06:33:13.760Z,92.09
2023-03-31T06:35:41.712Z,91.69
2023-03-31T06:38:08.688Z,91.59
2023-03-31T06:40:35.458Z,91.30
2023-03-31T06:43:02.149Z,92.02
2023-03-31T06:45:28.734Z,92.66
2023-03-31T06:47:55.516Z,92.23
2023-03-31T06:50:22.465Z,91.55
2023-03-31T06:52:52.747Z,90.56
2023-03-31T06:55:19.506Z,89.65
2023-03-31T06:57:46.469Z,89.70
2023-03-31T07:00:13.647Z,90.28
2023-03-31T07:02:40.590Z,90.99
2023-03-31T07:05:18.241Z,90.30
2023-03-31T07:07:46.442Z,89.55
2023-03-31T07:10:19.223Z,89.07
2023-03-31T07:12:45.959Z,88.44
2023-03-31T07:15:12.729Z,88.10
2023-03-31T07:17:43.279Z,87.35
2023-03-31T07:20:17.928Z,86.76
2023-03-31T07:22:48.891Z,85.49
2023-03-31T07:25:17.748Z,84.83
2023-03-31T07:27:44.663Z,84.36
2023-03-31T07:30:19.932Z,84.08
2023-03-31T07:32:48.740Z,83.78
2023-03-31T07:35:17.997Z,83.73
2023-03-31T07:37:47.349Z,83.40
2023-03-31T07:40:17.700Z,83.02
2023-03-31T07:42:46.006Z,83.03
2023-03-31T07:45:16.282Z,82.73
2023-03-31T07:47:44.834Z,83.28
2023-03-31T07:50:12.071Z,83.41
2023-03-31T07:52:39.255Z,82.57
2023-03-31T07:55:06.951Z,82.14
2023-03-31T07:57:38.071Z,82.45
2023-03-31T08:00:09.648Z,82.46
2023-03-31T08:02:36.552Z,82.46
2023-03-31T08:05:03.677Z,82.52
2023-03-31T08:07:31.187Z,82.92
2023-03-31T08:09:58.677Z,83.06
2023-03-31T08:12:27.979Z,82.90
2023-03-31T08:14:54.779Z,82.64
2023-03-31T08:17:21.384Z,83.44
2023-03-31T08:19:48.029Z,83.26
2023-03-31T08:22:14.666Z,83.27
2023-03-31T08:24:41.308Z,82.47
2023-03-31T08:27:11.883Z,82.74
2023-03-31T08:29:39.238Z,82.39
2023-03-31T08:32:07.291Z,81.21
2023-03-31T08:34:34.236Z,79.80
2023-03-31T08:37:00.976Z,77.92
2023-03-31T08:39:27.625Z,78.47
2023-03-31T08:42:00.898Z,78.21
2023-03-31T08:45:11.181Z,77.46
2023-03-31T08:47:41.810Z,77.80
2023-03-31T08:50:19.072Z,77.27
2023-03-31T08:52:55.131Z,76.10
2023-03-31T08:55:32.481Z,76.01
2023-03-31T08:58:03.584Z,75.81
2023-03-31T09:00:44.042Z,76.08
2023-03-31T09:03:25.140Z,76.14
2023-03-31T09:06:06.671Z,75.81
2023-03-31T09:08:41.844Z,76.33
2023-03-31T09:11:37.571Z,75.32
2023-03-31T09:14:19.510Z,74.76
2023-03-31T09:17:13.625Z,74.63
2023-03-31T09:19:48.102Z,74.86
2023-03-31T09:22:22.454Z,75.90
2023-03-31T09:25:05.124Z,74.07
2023-03-31T09:27:35.033Z,72.25
2023-03-31T09:30:04.803Z,72.88
2023-03-31T09:32:33.728Z,70.97
2023-03-31T09:35:12.918Z,70.13
2023-03-31T09:37:39.533Z,71.14
2023-03-31T09:40:11.690Z,71.67
2023-03-31T09:42:38.802Z,69.31
2023-03-31T09:45:16.251Z,68.09
2023-03-31T09:47:46.856Z,67.58
2023-03-31T09:50:16.391Z,66.67
2023-03-31T09:52:47.715Z,67.39
2023-03-31T09:55:35.956Z,67.16
2023-03-31T09:58:14.240Z,65.92
2023-03-31T10:00:42.948Z,66.56
2023-03-31T10:03:14.084Z,65.64
2023-03-31T10:05:52.822Z,65.33
2023-03-31T10:08:24.757Z,64.25
2023-03-31T10:10:54.174Z,64.48
2023-03-31T10:13:27.210Z,64.05
2023-03-31T10:16:02.880Z,64.31
2023-03-31T10:18:36.377Z,64.10
2023-03-31T10:21:06.946Z,63.96
2023-03-31T10:23:36.240Z,63.08
2023-03-31T10:26:04.840Z,62.93
2023-03-31T10:28:35.077Z,64.01
2023-03-31T10:31:03.066Z,65.28
2023-03-31T10:33:35.098Z,64.79
2023-03-31T10:36:15.814Z,65.53
2023-03-31T10:38:48.276Z,65.31
2023-03-31T10:41:20.996Z,65.18
2023-03-31T10:43:54.165Z,65.38
2023-03-31T10:46:21.626Z,64.84
2023-03-31T10:48:48.392Z,64.58
2023-03-31T10:51:17.210Z,65.22
2023-03-31T10:53:44.987Z,65.38
2023-03-31T10:56:34.843Z,65.55
2023-03-31T10:59:31.848Z,66.07
2023-03-31T11:02:20.323Z,65.21
2023-03-31T11:05:22.480Z,64.61
2023-03-31T11:08:10.610Z,64.88
2023-03-31T11:11:32.114Z,65.39
2023-03-31T11:14:16.580Z,66.22
2023-03-31T11:17:09.196Z,66.32
2023-03-31T11:19:47.940Z,66.89
2023-03-31T11:22:35.004Z,67.11
2023-03-31T11:25:13.733Z,67.44
2023-03-31T11:28:05.208Z,67.75
2023-03-31T11:30:34.759Z,67.61
2023-03-31T11:33:16.106Z,67.43
2023-03-31T11:35:59.808Z,68.01
2023-03-31T11:38:47.555Z,68.00
2023-03-31T11:41:19.520Z,68.18
2023-03-31T11:43:54.357Z,67.65
2023-03-31T11:46:26.859Z,68.62
2023-03-31T11:49:00.008Z,68.17
2023-03-31T11:51:32.185Z,67.87
2023-03-31T11:54:01.551Z,67.64
2023-03-31T11:56:36.586Z,67.75
2023-03-31T11:59:04.543Z,67.86
2023-03-31T12:01:55.760Z,67.34
2023-03-31T12:04:37.926Z,67.34
2023-03-31T12:07:11.959Z,68.69
2023-03-31T12:09:52.979Z,69.25
2023-03-31T12:12:24.598Z,70.20
2023-03-31T12:15:06.642Z,69.96
2023-03-31T12:17:36.372Z,69.93
2023-03-31T12:20:10.811Z,69.89
2023-03-31T12:22:43.921Z,70.39
2023-03-31T12:25:15.760Z,70.04
2023-03-31T12:27:54.774Z,67.84
2023-03-31T12:30:37.519Z,69.17
2023-03-31T12:33:31.815Z,69.36
2023-03-31T12:36:20.877Z,69.48
2023-03-31T12:39:15.244Z,69.13
2023-03-31T12:42:26.345Z,68.90
2023-03-31T12:45:30.525Z,68.73
2023-03-31T12:48:18.493Z,68.51
2023-03-31T12:51:08.164Z,68.75
2023-03-31T12:53:53.686Z,68.72
2023-03-31T12:56:21.283Z,66.83
2023-03-31T12:58:48.096Z,66.16
2023-03-31T13:01:24.741Z,66.30
2023-03-31T13:03:54.383Z,66.33
2023-03-31T13:06:30.001Z,65.90
2023-03-31T13:09:27.447Z,66.32
2023-03-31T13:11:54.314Z,66.22
2023-03-31T13:14:29.097Z,66.42
2023-03-31T13:17:14.642Z,66.28
2023-03-31T13:19:42.282Z,65.94
2023-03-31T13:22:37.741Z,66.14
2023-03-31T13:25:23.017Z,65.42
2023-03-31T13:27:50.431Z,64.48
2023-03-31T13:30:43.091Z,64.79
2023-03-31T13:33:11.344Z,66.04
2023-03-31T13:35:41.122Z,66.09
2023-03-31T13:38:19.847Z,66.54
2023-03-31T13:40:55.508Z,65.50
2023-03-31T13:43:43.944Z,66.15
2023-03-31T13:46:34.888Z,65.97
2023-03-31T13:49:35.457Z,66.01
2023-03-31T13:52:04.354Z,66.35
2023-03-31T13:54:58.851Z,66.13
2023-03-31T13:57:29.374Z,66.34
2023-03-31T14:00:44.117Z,66.48
2023-03-31T14:03:59.936Z,67.23
2023-03-31T14:06:49.585Z,67.56
2023-03-31T14:09:28.514Z,67.51
2023-03-31T14:11:56.806Z,67.61
2023-03-31T14:14:25.336Z,67.86
2023-03-31T14:16:57.145Z,67.89
2023-03-31T14:20:10.836Z,68.67
2023-03-31T14:23:02.234Z,67.24
2023-03-31T14:25:42.872Z,67.82
2023-03-31T14:28:28.017Z,68.61
2023-03-31T14:31:05.112Z,69.96
2023-03-31T14:33:50.026Z,70.53
2023-03-31T14:36:39.484Z,70.08
2023-03-31T14:39:10.912Z,70.81
2023-03-31T14:41:38.120Z,70.19
2023-03-31T14:44:07.456Z,69.43
2023-03-31T14:46:38.919Z,69.70
2023-03-31T14:49:28.549Z,68.19
2023-03-31T14:52:00.502Z,67.84
2023-03-31T14:54:27.187Z,67.54
2023-03-31T14:56:58.520Z,67.63
2023-03-31T14:59:29.127Z,68.43
2023-03-31T15:01:59.659Z,68.57
2023-03-31T15:04:41.497Z,68.88
2023-03-31T15:07:09.142Z,68.63
2023-03-31T15:09:36.534Z,68.38
2023-03-31T15:12:07.763Z,68.23
2023-03-31T15:14:45.098Z,67.94
2023-03-31T15:17:24.479Z,67.97
2023-03-31T15:19:56.399Z,68.55
2023-03-31T15:22:26.119Z,68.55
2023-03-31T15:24:53.847Z,68.81
2023-03-31T15:27:35.758Z,68.93
2023-03-31T15:30:09.265Z,68.61
2023-03-31T15:32:37.911Z,68.36
2023-03-31T15:35:18.676Z,68.17
2023-03-31T15:37:48.445Z,68.35
2023-03-31T15:40:27.852Z,68.79
2023-03-31T15:43:25.313Z,69.09
2023-03-31T15:45:57.594Z,69.04
2023-03-31T15:48:35.918Z,69.41
2023-03-31T15:51:17.824Z,69.17
2023-03-31T15:53:47.577Z,69.41
2023-03-31T15:56:36.404Z,69.65
2023-03-31T15:59:07.583Z,69.13
2023-03-31T16:01:38.963Z,68.74
2023-03-31T16:04:16.676Z,68.66
2023-03-31T16:06:54.663Z,68.68
2023-03-31T16:09:31.344Z,68.64
2023-03-31T16:12:02.256Z,68.93
2023-03-31T16:14:46.301Z,68.67
2023-03-31T16:17:26.270Z,69.12
2023-03-31T16:20:08.946Z,69.41
2023-03-31T16:22:47.117Z,70.09
2023-03-31T16:25:20.209Z,70.10
2023-03-31T16:27:51.240Z,70.26
2023-03-31T16:30:23.228Z,69.75
2023-03-31T16:33:20.395Z,69.86
2023-03-31T16:35:51.042Z,69.35
2023-03-31T16:38:18.509Z,69.09
2023-03-31T16:40:52.118Z,68.87
2023-03-31T16:43:28.724Z,68.33
2023-03-31T16:45:57.930Z,67.44
2023-03-31T16:48:29.958Z,67.12
2023-03-31T16:50:58.362Z,67.49
2023-03-31T16:53:28.506Z,66.70
2023-03-31T16:55:58.644Z,66.51
2023-03-31T16:58:27.670Z,66.19
2023-03-31T17:00:54.787Z,65.19
2023-03-31T17:03:22.531Z,64.64
2023-03-31T17:05:55.172Z,64.55
2023-03-31T17:08:27.855Z,64.61
2023-03-31T17:11:14.966Z,63.98
2023-03-31T17:13:43.508Z,64.18
2023-03-31T17:16:17.539Z,63.88
2023-03-31T17:18:49.179Z,63.19
2023-03-31T17:21:19.187Z,62.46
2023-03-31T17:23:48.822Z,62.34
2023-03-31T17:26:15.670Z,62.70
2023-03-31T17:28:42.957Z,62.52
2023-03-31T17:31:18.227Z,62.20
2023-03-31T17:33:45.439Z,62.20
2023-03-31T17:36:12.772Z,62.59
2023-03-31T17:38:39.993Z,62.47
2023-03-31T17:41:09.323Z,62.79
2023-03-31T17:43:36.292Z,62.57
2023-03-31T17:46:11.880Z,63.23
2023-03-31T17:48:40.541Z,63.30
2023-03-31T17:51:14.305Z,63.56
2023-03-31T17:53:42.345Z,62.74
2023-03-31T17:56:09.170Z,61.77
2023-03-31T17:58:35.906Z,60.40
2023-03-31T18:01:05.775Z,59.86
2023-03-31T18:03:32.721Z,58.83
2023-03-31T18:06:13.907Z,59.03
2023-03-31T18:08:41.848Z,57.36
2023-03-31T18:11:09.575Z,56.58
2023-03-31T18:13:37.430Z,54.60
2023-03-31T18:16:05.694Z,54.01
2023-03-31T18:18:32.733Z,53.04
2023-03-31T18:21:07.750Z,53.84
2023-03-31T18:23:35.235Z,53.12
2023-03-31T18:26:07.702Z,52.28
2023-03-31T18:28:35.042Z,51.85
2023-03-31T18:31:06.604Z,51.99
2023-03-31T18:33:34.332Z,51.75
2023-03-31T18:36:02.067Z,51.44
2023-03-31T18:38:29.780Z,51.99
2023-03-31T18:40:56.584Z,52.12
2023-03-31T18:43:24.922Z,51.94
2023-03-31T18:45:53.666Z,51.74
2023-03-31T18:48:22.198Z,51.92
2023-03-31T18:50:49.845Z,52.04
2023-03-31T18:53:17.792Z,52.38
2023-03-31T18:55:48.447Z,53.23
2023-03-31T18:58:17.560Z,52.72
2023-03-31T19:00:45.415Z,53.08
2023-03-31T19:03:12.600Z,52.99
2023-03-31T19:05:39.771Z,53.13
2023-03-31T19:08:06.946Z,53.09
2023-03-31T19:10:33.643Z,53.25
2023-03-31T19:13:00.325Z,53.92
2023-03-31T19:15:27.918Z,53.66
2023-03-31T19:17:55.109Z,53.83
2023-03-31T19:20:22.256Z,53.99
2023-03-31T19:22:51.003Z,53.70
2023-03-31T19:25:19.912Z,53.16
2023-03-31T19:27:46.969Z,53.27
2023-03-31T19:30:18.399Z,53.25
2023-03-31T19:32:47.040Z,54.11
2023-03-31T19:35:18.161Z,53.91
2023-03-31T19:37:45.402Z,53.41
2023-03-31T19:40:13.132Z,54.32
2023-03-31T19:42:42.112Z,55.51
2023-03-31T19:45:09.233Z,54.82
2023-03-31T19:47:35.977Z,55.56
2023-03-31T19:50:02.699Z,55.03
2023-03-31T19:52:30.216Z,54.72
2023-03-31T19:54:57.018Z,55.71
2023-03-31T19:57:23.692Z,55.84
2023-03-31T19:59:50.330Z,56.12
2023-03-31T20:02:17.124Z,56.63
2023-03-31T20:04:44.048Z,56.91
2023-03-31T20:07:10.809Z,57.04
2023-03-31T20:09:37.611Z,57.07
2023-03-31T20:12:04.548Z,57.23
2023-03-31T20:14:31.269Z,57.18
2023-03-31T20:17:00.924Z,57.31
2023-03-31T20:19:27.832Z,57.81
2023-03-31T20:21:56.132Z,58.62
2023-03-31T20:24:23.308Z,58.59
2023-03-31T20:26:50.308Z,58.36
2023-03-31T20:29:17.114Z,58.99
2023-03-31T20:31:43.821Z,59.74
2023-03-31T20:34:15.035Z,60.00
2023-03-31T20:36:43.466Z,61.00
2023-03-31T20:39:11.207Z,60.99
2023-03-31T20:41:38.180Z,61.74
2023-03-31T20:44:07.552Z,61.92
2023-03-31T20:46:34.583Z,62.33
2023-03-31T20:49:01.694Z,62.31
2023-03-31T20:51:31.399Z,62.84
2023-03-31T20:54:00.238Z,62.91
2023-03-31T20:56:33.417Z,63.46
2023-03-31T20:59:00.238Z,63.63
2023-03-31T21:01:28.765Z,64.06
2023-03-31T21:04:02.388Z,64.53
2023-03-31T21:06:32.753Z,64.27
2023-03-31T21:08:59.534Z,64.16
2023-03-31T21:11:27.510Z,63.90
2023-03-31T21:13:54.374Z,64.16
2023-03-31T21:16:23.817Z,64.57
2023-03-31T21:18:51.803Z,64.74
2023-03-31T21:21:21.520Z,64.45
2023-03-31T21:23:49.734Z,64.27
2023-03-31T21:26:16.709Z,64.64
2023-03-31T21:28:44.240Z,64.38
2023-03-31T21:31:17.222Z,64.36
2023-03-31T21:33:45.380Z,64.61
2023-03-31T21:36:17.928Z,64.57
2023-03-31T21:38:45.728Z,64.46
2023-03-31T21:41:18.027Z,64.42
2023-03-31T21:43:45.114Z,64.37
2023-03-31T21:46:27.012Z,64.35
2023-03-31T21:48:54.242Z,64.90
2023-03-31T21:51:22.403Z,64.96
2023-03-31T21:53:49.839Z,65.13
2023-03-31T21:56:16.578Z,64.87
2023-03-31T21:58:43.214Z,65.11
2023-03-31T22:01:09.866Z,65.15
2023-03-31T22:03:41.745Z,64.90
2023-03-31T22:06:08.893Z,64.53
2023-03-31T22:08:37.113Z,64.80
2023-03-31T22:11:06.323Z,65.02
2023-03-31T22:13:33.813Z,65.31
2023-03-31T22:16:03.959Z,65.48
2023-03-31T22:18:31.386Z,65.78
2023-03-31T22:20:58.555Z,65.50
2023-03-31T22:23:26.161Z,65.48
2023-03-31T22:25:52.807Z,65.69
2023-03-31T22:28:19.561Z,65.63
2023-03-31T22:30:46.474Z,65.91
2023-03-31T22:33:13.367Z,65.55
2023-03-31T22:35:40.140Z,65.89
2023-03-31T22:38:08.546Z,65.48
2023-03-31T22:40:35.975Z,65.61
2023-03-31T22:43:02.677Z,65.62
2023-03-31T22:45:29.425Z,65.36
2023-03-31T22:47:56.696Z,65.51
2023-03-31T22:50:24.411Z,65.07
2023-03-31T22:52:51.175Z,64.64
2023-03-31T22:55:17.876Z,64.81
2023-03-31T22:57:44.924Z,65.11
2023-03-31T23:00:12.862Z,64.84
2023-03-31T23:02:41.987Z,65.09
2023-03-31T23:05:09.190Z,65.30
2023-03-31T23:07:36.288Z,65.44
2023-03-31T23:10:06.177Z,65.42
2023-03-31T23:12:32.831Z,65.42
2023-03-31T23:14:59.474Z,65.04
2023-03-31T23:17:26.546Z,65.20
2023-03-31T23:19:53.254Z,65.41
2023-03-31T23:22:20.028Z,65.89
2023-03-31T23:24:51.700Z,65.60
2023-03-31T23:27:19.591Z,65.91
2023-03-31T23:29:46.697Z,65.97
2023-03-31T23:32:14.197Z,65.60
2023-03-31T23:34:41.996Z,66.08
2023-03-31T23:37:11.597Z,65.43
2023-03-31T23:39:39.043Z,64.90
2023-03-31T23:42:12.575Z,65.14
2023-03-31T23:44:39.292Z,64.95
2023-03-31T23:47:08.632Z,65.27
2023-03-31T23:49:35.805Z,65.02
2023-03-31T23:52:02.436Z,65.38
2023-03-31T23:54:29.448Z,65.41
2023-03-31T23:56:56.510Z,65.09
2023-03-31T23:59:23.175Z,66.29
